Time;durP1;ratioP1;P1;durP2;ratioP2;P2;SDS_P1;SDS_P2;PMS_P1;PMS_P2;Temp;Humidity;BMP_temperature;BMP_pressure;BME280_temperature;BME280_humidity;BME280_pressure;Samples;Min_cycle;Max_cycle;Signal;HPM_P1;HPM_P2
2021/11/01 00:01:02;;;;;;;47.60;31.48;;;;;;;3.86;75.64;100195.09;1734708;82;21027;-68
2021/11/01 00:03:29;;;;;;;51.83;31.80;;;;;;;3.86;75.62;100199.13;1739804;82;21497;-67
2021/11/01 00:05:57;;;;;;;47.90;33.92;;;;;;;3.86;75.63;100192.40;1725854;82;21051;-68
2021/11/01 00:08:24;;;;;;;45.92;30.65;;;;;;;3.85;75.76;100194.77;1746177;82;21015;-68
2021/11/01 00:10:51;;;;;;;57.78;36.38;;;;;;;3.80;75.91;100190.03;1752919;82;21596;-67
2021/11/01 00:13:17;;;;;;;59.23;43.30;;;;;;;3.75;76.07;100187.18;1740417;82;21014;-68
2021/11/01 00:15:44;;;;;;;52.93;36.68;;;;;;;3.74;76.14;100181.48;1753036;82;21668;-67
2021/11/01 00:18:10;;;;;;;54.50;36.30;;;;;;;3.77;76.07;100188.30;1750184;82;20995;-68
2021/11/01 00:20:37;;;;;;;52.30;32.98;;;;;;;3.80;76.02;100184.64;1750736;82;21569;-68
2021/11/01 00:23:04;;;;;;;51.77;30.82;;;;;;;3.78;76.10;100186.74;1739245;82;21019;-67
2021/11/01 00:25:30;;;;;;;51.20;31.87;;;;;;;3.71;76.21;100181.92;1725514;82;21575;-68
2021/11/01 00:27:59;;;;;;;49.30;31.33;;;;;;;3.65;76.36;100177.92;1740123;82;21011;-67
2021/11/01 00:30:26;;;;;;;53.58;32.28;;;;;;;3.64;76.27;100177.09;1748613;82;20995;-68
2021/11/01 00:32:53;;;;;;;48.40;31.57;;;;;;;3.66;76.06;100175.52;1747621;82;21004;-68
2021/11/01 00:35:20;;;;;;;50.10;31.95;;;;;;;3.66;76.03;100173.65;1737400;82;21541;-67
2021/11/01 00:37:47;;;;;;;51.00;32.10;;;;;;;3.63;76.11;100173.26;1742141;82;21010;-68
2021/11/01 00:40:14;;;;;;;47.80;30.95;;;;;;;3.58;76.41;100166.37;1734988;82;21441;-68
2021/11/01 00:42:40;;;;;;;;;;;;;;;3.52;76.50;100168.04;1731974;82;20995;-68
2021/11/01 00:45:08;;;;;;;51.28;30.15;;;;;;;3.50;76.56;100160.20;1724909;82;20114;-68
2021/11/01 00:47:34;;;;;;;50.20;32.03;;;;;;;3.48;76.61;100166.81;1678992;83;21019;-68
2021/11/01 00:50:00;;;;;;;45.00;29.67;;;;;;;3.48;76.67;100159.56;1726570;82;21003;-67
2021/11/01 00:52:28;;;;;;;50.70;31.60;;;;;;;3.49;76.68;100160.40;1738561;82;21600;-68
2021/11/01 00:55:03;;;;;;;48.10;30.40;;;;;;;3.45;76.72;100154.63;1739863;82;21035;-68
2021/11/01 00:57:26;;;;;;;51.18;31.05;;;;;;;3.40;76.94;100150.39;1736160;82;21026;-67
2021/11/01 00:59:53;;;;;;;44.77;29.90;;;;;;;3.35;77.07;100154.27;1724236;82;21023;-67
2021/11/01 01:02:19;;;;;;;55.65;33.33;;;;;;;3.33;77.13;100156.88;1742198;82;21030;-67
2021/11/01 01:04:46;;;;;;;52.43;32.03;;;;;;;3.33;77.06;100154.98;1729013;82;20983;-67
2021/11/01 01:07:12;;;;;;;48.13;31.40;;;;;;;3.36;76.98;100154.58;1713198;82;21031;-68
2021/11/01 01:09:38;;;;;;;51.53;30.57;;;;;;;3.34;76.95;100152.61;1744061;82;21015;-67
2021/11/01 01:12:07;;;;;;;56.63;33.23;;;;;;;3.28;77.05;100145.40;1711680;82;21030;-67
2021/11/01 01:14:41;;;;;;;49.33;33.15;;;;;;;3.20;77.12;100142.95;1726737;82;20959;-68
2021/11/01 01:17:03;;;;;;;52.93;32.42;;;;;;;3.17;77.15;100143.38;1752027;82;21047;-67
2021/11/01 01:19:42;;;;;;;;;;;;;;;3.18;77.15;100136.97;1753973;82;20951;-67
2021/11/01 01:22:22;;;;;;;;;;;;;;;3.18;77.09;100138.31;1739973;82;20115;-68
2021/11/01 01:24:43;;;;;;;54.85;31.50;;;;;;;3.12;77.14;100137.80;1741991;82;20145;-67
2021/11/01 01:27:10;;;;;;;45.43;30.08;;;;;;;3.05;77.30;100131.63;1753113;82;21561;-68
2021/11/01 01:29:38;;;;;;;50.38;31.73;;;;;;;3.03;77.46;100126.16;1743824;82;21049;-68
2021/11/01 01:32:06;;;;;;;51.48;32.08;;;;;;;2.98;77.68;100124.10;1748910;82;21529;-67
2021/11/01 01:34:32;;;;;;;49.40;30.80;;;;;;;2.93;77.87;100123.94;1722659;82;21007;-67
2021/11/01 01:36:59;;;;;;;47.50;30.82;;;;;;;2.88;78.00;100113.80;1747914;82;21568;-68
2021/11/01 01:39:25;;;;;;;50.98;33.00;;;;;;;2.89;78.03;100116.81;1753678;82;21050;-67
2021/11/01 01:41:52;;;;;;;49.27;31.68;;;;;;;2.96;77.84;100118.13;1736525;82;21628;-67
2021/11/01 01:44:19;;;;;;;44.93;29.63;;;;;;;3.01;77.63;100109.70;1743688;82;21074;-68
2021/11/01 01:46:45;;;;;;;47.15;29.90;;;;;;;3.01;77.61;100112.39;1725791;82;21573;-68
2021/11/01 01:49:12;;;;;;;47.80;29.80;;;;;;;2.98;77.86;100109.31;1725695;82;21007;-68
2021/11/01 01:51:38;;;;;;;50.92;31.15;;;;;;;2.91;78.15;100106.65;1736919;82;21597;-68
2021/11/01 01:54:05;;;;;;;46.55;31.55;;;;;;;2.88;78.43;100098.19;1734323;82;21003;-68
2021/11/01 01:56:31;;;;;;;45.23;29.60;;;;;;;2.92;78.47;100110.17;1753505;82;21086;-68
2021/11/01 01:59:06;;;;;;;45.25;29.12;;;;;;;2.98;78.29;100098.03;1727667;82;20999;-68
2021/11/01 02:01:34;;;;;;;41.20;27.47;;;;;;;3.03;78.28;100100.09;1696553;83;21054;-68
2021/11/01 02:04:01;;;;;;;43.78;28.30;;;;;;;3.01;78.47;100096.27;1744267;82;21031;-68
2021/11/01 02:06:59;;;;;;;42.20;27.80;;;;;;;2.96;78.73;100100.12;1752809;82;21679;-67
2021/11/01 02:09:35;;;;;;;46.88;31.07;;;;;;;2.91;78.99;100094.55;1748440;82;21050;-68
2021/11/01 02:12:10;;;;;;;50.35;31.45;;;;;;;2.86;79.13;100092.20;1751530;82;21062;-68
2021/11/01 02:14:51;;;;;;;45.40;30.12;;;;;;;2.89;79.20;100091.78;1725409;82;21022;-67
2021/11/01 02:17:21;;;;;;;44.98;29.15;;;;;;;2.98;79.07;100089.14;1710718;82;21043;-67
2021/11/01 02:19:48;;;;;;;44.93;29.77;;;;;;;3.05;79.01;100102.03;1729133;82;21002;-68
2021/11/01 02:22:29;;;;;;;47.15;28.98;;;;;;;3.03;78.98;100092.02;1730275;82;21046;-68
2021/11/01 02:25:11;;;;;;;48.17;30.30;;;;;;;2.99;79.28;100090.28;1737252;81;21023;-68
2021/11/01 02:27:39;;;;;;;46.45;30.60;;;;;;;2.93;79.45;100090.31;1737582;82;21023;-68
2021/11/01 02:30:07;;;;;;;47.60;30.95;;;;;;;2.94;79.52;100087.39;1751295;82;21034;-68
2021/11/01 02:32:36;;;;;;;43.05;28.40;;;;;;;2.99;79.35;100086.77;1735903;82;21109;-67
2021/11/01 02:35:04;;;;;;;41.30;27.70;;;;;;;2.99;79.39;100084.08;1714456;82;20971;-68
2021/11/01 02:37:31;;;;;;;46.33;32.63;;;;;;;2.94;79.65;100083.91;1716561;82;21023;-67
2021/11/01 02:39:58;;;;;;;46.08;31.52;;;;;;;2.90;79.83;100078.65;1736560;82;21546;-68
2021/11/01 02:42:27;;;;;;;44.83;29.52;;;;;;;2.93;79.89;100076.36;1722188;82;21035;-67
2021/11/01 02:45:07;;;;;;;48.90;30.80;;;;;;;3.00;79.67;100074.46;1739287;82;20996;-67
2021/11/01 02:47:34;;;;;;;45.63;30.08;;;;;;;3.00;79.63;100066.91;1737365;82;21554;-67
2021/11/01 02:50:01;;;;;;;42.60;28.83;;;;;;;2.95;79.84;100072.09;1739436;82;21012;-68
2021/11/01 02:52:28;;;;;;;46.77;31.17;;;;;;;2.90;79.98;100072.75;1732339;82;21035;-67
2021/11/01 02:54:56;;;;;;;43.30;29.57;;;;;;;2.95;79.87;100074.27;1726285;82;20971;-67
2021/11/01 02:57:22;;;;;;;42.83;28.07;;;;;;;2.98;79.76;100073.83;1733297;82;21023;-67
2021/11/01 02:59:49;;;;;;;44.25;28.95;;;;;;;2.93;79.69;100067.46;1739743;82;21504;-67
2021/11/01 03:02:16;;;;;;;;;;;;;;;2.87;79.86;100071.81;1721686;82;21023;-67
2021/11/01 03:04:43;;;;;;;42.15;27.40;;;;;;;2.82;80.00;100070.81;1728362;81;20131;-68
2021/11/01 03:07:09;;;;;;;48.60;30.37;;;;;;;2.68;80.21;100071.39;1709926;84;21047;-67
2021/11/01 03:09:38;;;;;;;47.88;31.87;;;;;;;2.71;80.17;100064.24;1735892;82;21494;-67
2021/11/01 03:12:07;;;;;;;44.50;29.90;;;;;;;2.81;79.78;100069.98;1719364;82;21027;-67
2021/11/01 03:14:43;;;;;;;41.92;28.10;;;;;;;2.84;79.64;100065.52;1715416;82;21027;-67
2021/11/01 03:17:15;;;;;;;41.48;27.32;;;;;;;2.84;79.61;100067.37;1710731;82;21075;-67
2021/11/01 03:19:43;;;;;;;45.35;28.83;;;;;;;2.76;79.76;100067.13;1731790;82;21020;-67
2021/11/01 03:22:10;;;;;;;40.50;27.35;;;;;;;2.70;79.90;100067.95;1738178;82;21027;-67
2021/11/01 03:24:40;;;;;;;44.85;29.60;;;;;;;2.64;79.96;100060.75;1711774;82;20991;-67
2021/11/01 03:27:07;;;;;;;47.20;30.75;;;;;;;2.63;79.89;100066.33;1710253;82;21044;-67
2021/11/01 03:29:34;;;;;;;43.68;29.40;;;;;;;2.63;79.76;100066.33;1728164;82;21561;-68
2021/11/01 03:32:02;;;;;;;41.35;27.67;;;;;;;2.61;79.75;100059.84;1737994;81;21023;-67
2021/11/01 03:34:29;;;;;;;44.90;31.20;;;;;;;2.59;79.81;100058.41;1723767;82;20996;-67
2021/11/01 03:36:57;;;;;;;45.08;30.95;;;;;;;2.51;80.01;100054.89;1736942;82;21031;-67
2021/11/01 03:39:24;;;;;;;46.75;31.77;;;;;;;2.47;80.30;100059.06;1711231;82;21023;-67
2021/11/01 03:41:51;;;;;;;54.98;36.77;;;;;;;2.48;80.47;100062.03;1703907;82;21071;-67
2021/11/01 03:44:21;;;;;;;54.30;36.58;;;;;;;2.53;80.45;100058.72;1735239;82;20980;-68
2021/11/01 03:46:55;;;;;;;48.08;33.48;;;;;;;2.55;80.44;100057.18;1717274;82;21070;-68
2021/11/01 03:49:21;;;;;;;49.05;33.25;;;;;;;2.59;80.42;100051.69;1709688;84;21028;-68
2021/11/01 03:51:51;;;;;;;48.13;32.42;;;;;;;2.56;80.46;100054.78;1717493;82;21055;-67
2021/11/01 03:54:19;;;;;;;45.45;31.10;;;;;;;2.50;80.64;100047.89;1726541;82;20977;-67
2021/11/01 03:56:46;;;;;;;50.75;36.33;;;;;;;2.46;80.81;100048.52;1720439;82;21016;-67
2021/11/01 03:59:13;;;;;;;49.95;35.65;;;;;;;2.44;80.85;100047.91;1722468;82;20944;-68
2021/11/01 04:01:42;;;;;;;55.17;36.77;;;;;;;2.46;80.75;100039.11;1716062;82;21091;-68
2021/11/01 04:04:09;;;;;;;52.73;34.55;;;;;;;2.49;80.73;100044.05;1711178;82;20972;-68
2021/11/01 04:06:39;;;;;;;58.83;36.20;;;;;;;2.53;80.76;100043.11;1722190;82;21098;-68
2021/11/01 04:09:05;;;;;;;53.00;33.80;;;;;;;2.48;80.77;100031.13;1720262;82;20999;-68
2021/11/01 04:11:32;;;;;;;53.92;33.30;;;;;;;2.43;80.98;100043.05;1689788;84;21066;-67
2021/11/01 04:14:09;;;;;;;58.63;35.60;;;;;;;2.40;81.17;100031.91;1732574;82;20968;-68
2021/11/01 04:16:37;;;;;;;56.73;35.92;;;;;;;2.44;81.12;100035.82;1737587;82;21015;-67
2021/11/01 04:19:20;;;;;;;55.92;34.33;;;;;;;2.45;81.09;100031.56;1715740;82;21486;-67
2021/11/01 04:21:30;;;;;;;56.08;35.92;;;;;;;2.47;81.10;100031.36;1736101;82;21582;-67
2021/11/01 04:23:59;;;;;;;57.23;37.08;;;;;;;2.44;81.17;100028.55;1730908;82;21068;-68
2021/11/01 04:26:25;;;;;;;53.50;35.90;;;;;;;2.40;81.43;100025.19;1734164;82;21550;-68
2021/11/01 04:28:53;;;;;;;54.70;34.50;;;;;;;2.39;81.61;100026.21;1738980;82;21000;-68
2021/11/01 04:31:28;;;;;;;53.28;35.73;;;;;;;2.43;81.51;100026.09;1741272;81;21604;-67
2021/11/01 04:33:54;;;;;;;47.88;33.23;;;;;;;2.44;81.46;100028.55;1733778;82;20996;-68
2021/11/01 04:36:19;;;;;;;44.73;31.37;;;;;;;2.46;81.40;100027.02;1751269;81;21063;-68
2021/11/01 04:54:43;;;;;;;47.25;31.82;;;;;;;2.30;81.78;100010.83;1726678;82;21521;-67
2021/11/01 04:57:10;;;;;;;49.03;35.23;;;;;;;2.25;82.02;100017.38;1741004;82;21129;-67
2021/11/01 04:59:39;;;;;;;47.70;32.78;;;;;;;2.26;82.20;100016.34;1753316;82;20996;-67
2021/11/01 05:02:05;;;;;;;44.80;32.40;;;;;;;2.30;82.17;100014.86;1745931;82;21043;-70
2021/11/01 05:04:35;;;;;;;;;;;;;;;2.34;82.08;100012.06;1734536;82;20975;-68
2021/11/01 05:07:03;;;;;;;48.73;32.20;;;;;;;2.34;82.08;100008.55;1724637;82;20112;-67
2021/11/01 05:10:14;;;;;;;51.00;36.15;;;;;;;2.28;82.30;100016.95;1724318;82;21031;-68
2021/11/01 05:14:36;;;;;;;53.60;36.10;;;;;;;2.27;82.62;100012.59;1751322;81;21075;-68
2021/11/01 05:19:37;;;;;;;48.17;34.40;;;;;;;2.34;82.42;100012.58;1755004;81;20999;-69
2021/11/01 05:22:16;;;;;;;51.58;36.63;;;;;;;2.30;82.47;100010.83;1753868;82;21043;-68
2021/11/01 05:24:42;;;;;;;56.73;40.20;;;;;;;2.27;82.61;100013.11;1723206;82;20986;-68
2021/11/01 05:29:48;;;;;;;53.55;36.10;;;;;;;2.34;82.75;100011.23;1748034;82;21030;-68
2021/11/01 05:32:17;;;;;;;52.80;35.33;;;;;;;2.36;82.68;100007.83;1735561;82;21070;-68
2021/11/01 05:34:42;;;;;;;49.30;34.73;;;;;;;2.38;82.63;100009.78;1752543;81;20980;-68
2021/11/01 05:37:09;;;;;;;48.78;34.27;;;;;;;2.35;82.66;100018.27;1730922;82;21070;-68
2021/11/01 05:39:37;;;;;;;50.20;34.55;;;;;;;2.30;82.83;100016.20;1735457;82;20968;-67
2021/11/01 05:42:05;;;;;;;48.50;35.25;;;;;;;2.31;82.94;100012.48;1744120;82;21055;-68
2021/11/01 05:44:32;;;;;;;50.33;33.80;;;;;;;2.37;82.84;100012.98;1734445;82;21003;-68
2021/11/01 05:46:59;;;;;;;51.75;34.45;;;;;;;2.43;82.75;100014.84;1753317;82;21059;-68
2021/11/01 05:49:26;;;;;;;47.85;33.60;;;;;;;2.45;82.67;100020.81;1724967;82;21039;-68
2021/11/01 05:51:54;;;;;;;48.10;32.98;;;;;;;2.45;82.70;100022.16;1724990;82;21042;-68
2021/11/01 05:54:24;;;;;;;45.60;32.33;;;;;;;2.42;82.78;100025.78;1738671;82;21422;-68
2021/11/01 06:00:24;;;;;;;50.73;35.33;;;;;;;2.45;82.71;100027.53;1753090;82;20979;-68
2021/11/01 06:07:21;;;;;;;51.98;34.85;;;;;;;2.47;82.54;100035.39;1723549;83;21082;-68
2021/11/01 06:14:54;;;;;;;41.35;30.72;;;;;;;2.46;82.63;100043.97;1723623;83;21027;-69
2021/11/01 06:17:21;;;;;;;53.55;35.95;;;;;;;2.47;82.56;100041.59;1723285;83;21034;-68
2021/11/01 06:19:47;;;;;;;48.70;34.53;;;;;;;2.45;82.47;100047.68;1723467;83;20999;-68
2021/11/01 06:22:14;;;;;;;;;;;;;;;2.43;82.56;100043.05;1725767;83;21059;-68
2021/11/01 06:24:54;;;;;;;51.70;36.23;;;;;;;2.49;82.82;100037.34;1723389;83;20136;-69
2021/11/01 06:27:22;;;;;;;46.73;32.95;;;;;;;2.54;83.07;100039.39;1723151;83;21082;-68
2021/11/01 06:45:42;;;;;;;45.75;33.55;;;;;;;3.92;82.41;100017.79;1721232;83;21145;-70
2021/11/01 06:56:33;;;;;;;39.83;30.02;;;;;;;5.08;80.74;100024.40;1750934;82;21554;-73
2021/11/01 07:15:03;;;;;;;50.73;34.48;;;;;;;6.50;77.34;100027.63;1753364;82;20987;-73
2021/11/01 07:20:21;;;;;;;40.78;31.15;;;;;;;6.92;75.95;100033.63;1753367;82;20991;-73
2021/11/01 10:18:47;;;;;;;43.40;33.18;;;;;;;13.10;53.59;99836.43;1739131;82;21110;-71
2021/11/01 10:21:17;;;;;;;38.83;31.68;;;;;;;13.18;53.82;99839.92;1703887;83;21040;-70
2021/11/01 10:23:49;;;;;;;42.53;32.63;;;;;;;13.48;53.33;99833.34;1723499;82;21043;-70
2021/11/01 10:26:19;;;;;;;39.55;31.97;;;;;;;13.64;52.62;99834.84;1710297;82;21048;-70
2021/11/01 10:28:52;;;;;;;40.33;31.95;;;;;;;13.66;52.29;99836.17;1729736;82;20980;-71
2021/11/01 10:31:23;;;;;;;46.45;35.15;;;;;;;13.71;52.29;99838.84;1722307;82;21059;-70
2021/11/01 10:33:53;;;;;;;44.83;33.02;;;;;;;13.75;52.06;99833.05;1736390;82;21015;-71
2021/11/01 10:36:28;;;;;;;43.73;33.90;;;;;;;13.63;52.42;99835.94;1719021;82;21016;-70
2021/11/01 10:38:59;;;;;;;42.58;33.40;;;;;;;13.61;52.76;99834.03;1729711;82;21046;-70
2021/11/01 10:41:36;;;;;;;44.18;34.05;;;;;;;13.79;52.74;99829.19;1722235;82;21028;-71
2021/11/01 11:48:35;;;;;;;42.63;31.77;;;;;;;12.06;57.10;99769.34;1802839;79;22719;-70
2021/11/01 11:50:46;;;;;;;40.73;31.30;;;;;;;11.72;58.17;99770.05;1744678;81;21088;-71
2021/11/01 11:53:17;;;;;;;43.60;32.23;;;;;;;11.56;58.87;99777.14;1712409;83;21672;-71
2021/11/01 11:55:47;;;;;;;44.80;33.85;;;;;;;11.38;59.58;99776.64;1715666;82;21619;-70
2021/11/01 11:58:14;;;;;;;40.08;32.05;;;;;;;11.27;60.09;99770.94;1717868;82;20999;-70
2021/11/01 12:00:42;;;;;;;41.40;31.50;;;;;;;11.21;60.57;99770.69;1726327;82;21706;-71
2021/11/01 12:03:18;;;;;;;43.10;32.03;;;;;;;11.23;60.88;99769.06;1730643;81;21031;-75
2021/11/01 12:05:52;;;;;;;;;;;;;;;11.23;60.89;99760.89;1732748;82;21126;-73
2021/11/01 12:08:33;;;;;;;35.30;28.52;;;;;;;11.22;61.06;99758.70;1720210;82;20131;-73
2021/11/01 12:11:19;;;;;;;41.35;31.75;;;;;;;11.09;61.49;99748.34;1713802;82;21107;-72
2021/11/01 12:19:09;;;;;;;37.05;28.50;;;;;;;11.03;61.98;99745.91;1712732;82;21022;-73
2021/11/01 12:21:40;;;;;;;43.87;30.85;;;;;;;11.08;61.96;99738.56;1714011;83;21089;-74
2021/11/01 12:24:12;;;;;;;41.15;31.07;;;;;;;11.08;62.01;99737.20;1729669;82;20979;-71
2021/11/01 12:26:43;;;;;;;41.60;31.35;;;;;;;11.06;62.16;99744.81;1711618;82;21059;-70
2021/11/01 12:29:08;;;;;;;42.15;29.95;;;;;;;11.04;62.20;99740.20;1701020;83;20999;-68
2021/11/01 12:31:37;;;;;;;39.53;29.85;;;;;;;11.01;62.28;99733.95;1724776;81;21026;-68
2021/11/01 12:34:09;;;;;;;37.55;27.85;;;;;;;10.99;62.39;99732.84;1708863;83;21011;-68
2021/11/01 12:42:22;;;;;;;38.78;28.42;;;;;;;11.02;62.40;99730.11;1724492;83;21125;-68
2021/11/01 12:58:25;;;;;;;34.98;26.45;;;;;;;10.97;62.45;99713.25;1687998;82;21086;-68
2021/11/01 13:00:52;;;;;;;36.15;24.23;;;;;;;10.91;62.58;99716.26;1683771;85;21071;-68
2021/11/01 13:03:21;;;;;;;35.55;24.98;;;;;;;10.87;62.65;99712.45;1683783;85;21046;-68
2021/11/01 13:06:02;;;;;;;37.45;26.82;;;;;;;10.84;62.69;99713.00;1702980;83;21070;-68
2021/11/01 13:08:35;;;;;;;42.55;30.45;;;;;;;10.77;62.82;99715.97;1687576;83;21062;-68
2021/11/01 13:11:15;;;;;;;38.08;27.67;;;;;;;10.76;62.84;99713.00;1717960;82;21550;-69
2021/11/01 13:19:17;;;;;;;36.63;26.77;;;;;;;10.66;63.15;99706.74;1718140;82;21948;-68
2021/11/01 13:21:58;;;;;;;43.25;32.85;;;;;;;10.60;63.34;99706.45;1718036;83;21582;-68
2021/11/01 13:24:40;;;;;;;41.33;29.90;;;;;;;10.51;63.55;99704.02;1718215;83;21502;-68
2021/11/01 13:37:59;;;;;;;41.30;30.10;;;;;;;10.36;64.22;99682.52;1705055;83;21517;-68
2021/11/01 13:40:25;;;;;;;44.77;32.78;;;;;;;10.31;64.38;99678.95;1718079;82;21043;-68
2021/11/01 13:42:59;;;;;;;41.50;30.17;;;;;;;10.30;64.44;99678.16;1666211;83;21043;-68
2021/11/01 13:45:27;;;;;;;42.50;31.00;;;;;;;10.31;64.47;99678.95;1703515;82;21075;-68
2021/11/01 13:48:00;;;;;;;39.42;29.90;;;;;;;10.24;64.62;99683.30;1706900;82;21095;-68
2021/11/01 13:50:36;;;;;;;44.53;31.23;;;;;;;10.18;64.83;99677.59;1712192;82;20987;-68
2021/11/01 13:53:12;;;;;;;42.08;30.12;;;;;;;10.10;65.00;99678.09;1718817;82;21023;-69
2021/11/01 13:55:46;;;;;;;42.70;29.43;;;;;;;10.07;65.13;99678.63;1713338;83;21054;-68
2021/11/01 14:19:21;;;;;;;51.48;34.48;;;;;;;9.51;66.56;99674.95;1724305;83;21526;-69
2021/11/01 15:00:17;;;;;;;196.32;77.92;;;;;;;8.65;68.75;99659.55;1708621;83;21066;-68
2021/11/01 15:08:09;;;;;;;62.93;38.38;;;;;;;8.52;69.08;99656.47;1674093;84;21136;-69
2021/11/01 15:15:38;;;;;;;48.35;32.53;;;;;;;8.40;69.26;99653.93;1723150;83;21015;-68
2021/11/01 15:18:46;;;;;;;54.18;36.75;;;;;;;8.34;69.39;99651.73;1709915;81;21071;-68
2021/11/01 15:20:41;;;;;;;50.67;35.52;;;;;;;8.25;69.71;99651.09;1715145;82;21020;-67
2021/11/01 15:34:31;;;;;;;53.68;34.80;;;;;;;8.03;70.53;99659.83;1717880;82;21094;-68
2021/11/01 15:37:06;;;;;;;44.77;32.03;;;;;;;7.93;70.76;99667.33;1748224;81;21637;-68
2021/11/01 16:17:47;;;;;;;42.85;30.20;;;;;;;7.53;74.24;99676.37;1688304;83;21056;-68
2021/11/01 16:20:09;;;;;;;43.15;30.72;;;;;;;7.50;74.49;99678.52;1716658;83;21394;-66
2021/11/01 16:22:41;;;;;;;46.37;31.55;;;;;;;7.45;74.68;99675.74;1717241;82;21055;-66
2021/11/01 16:25:08;;;;;;;40.65;29.92;;;;;;;7.44;74.75;99673.27;1716856;83;20984;-68
2021/11/01 16:27:35;;;;;;;42.17;29.57;;;;;;;7.47;74.78;99673.59;1716491;83;21043;-68
2021/11/01 16:30:10;;;;;;;44.18;33.18;;;;;;;7.48;74.84;99676.58;1716516;83;21012;-68
2021/11/01 16:32:38;;;;;;;44.40;31.73;;;;;;;7.42;75.00;99676.25;1705261;83;21558;-68
2021/11/01 16:35:06;;;;;;;47.88;32.67;;;;;;;7.38;75.16;99677.82;1717837;83;20996;-71
2021/11/01 16:40:11;;;;;;;41.70;28.83;;;;;;;7.41;75.06;99682.73;1718188;83;21023;-74
2021/11/01 16:42:39;;;;;;;45.98;31.70;;;;;;;7.38;75.23;99690.01;1716424;83;21051;-72
2021/11/01 16:45:21;;;;;;;43.80;31.00;;;;;;;7.30;75.53;99689.09;1714643;82;21004;-73
2021/11/01 16:47:46;;;;;;;40.03;30.02;;;;;;;7.27;75.66;99684.17;1699918;83;21055;-73
2021/11/01 16:50:16;;;;;;;42.75;29.75;;;;;;;7.29;75.72;99691.53;1688750;83;21562;-74
2021/11/01 16:52:44;;;;;;;41.33;29.92;;;;;;;7.29;75.86;99689.36;1706274;82;21015;-73
2021/11/01 16:55:18;;;;;;;48.35;32.75;;;;;;;7.21;76.09;99680.30;1728530;83;21007;-74
2021/11/01 16:57:48;;;;;;;50.98;35.23;;;;;;;7.19;76.27;99679.19;1714712;82;21082;-74
2021/11/01 17:00:31;;;;;;;43.68;30.52;;;;;;;7.21;76.26;99685.19;1713950;82;21001;-73
2021/11/01 17:06:01;;;;;;;45.15;31.65;;;;;;;7.17;76.61;99681.34;1707578;83;21102;-73
2021/11/01 17:08:51;;;;;;;39.67;29.70;;;;;;;7.15;76.74;99682.14;1713529;83;21095;-74
2021/11/01 17:22:19;;;;;;;82.90;57.53;;;;;;;7.07;77.01;99670.91;1702347;83;21503;-72
2021/11/01 17:24:46;;;;;;;43.10;33.75;;;;;;;7.12;77.02;99662.88;1691927;82;21460;-71
2021/11/01 17:36:11;;;;;;;45.20;32.08;;;;;;;7.20;77.32;99667.30;1711571;82;21065;-73
2021/11/01 17:38:57;;;;;;;52.05;34.18;;;;;;;7.23;77.34;99661.91;1723365;81;21415;-73
2021/11/01 18:37:28;;;;;;;43.48;32.55;;;;;;;7.60;77.81;99626.34;1671892;84;21048;-72
2021/11/01 18:42:24;;;;;;;41.92;29.27;;;;;;;7.69;77.71;99628.86;1666928;86;21053;-71
2021/11/01 18:53:07;;;;;;;117.05;70.17;;;;;;;7.78;77.59;99615.69;1711799;83;20983;-72
2021/11/01 18:55:32;;;;;;;113.20;74.00;;;;;;;7.83;77.38;99609.77;1715764;81;20992;-73
2021/11/01 18:58:01;;;;;;;57.85;39.98;;;;;;;7.89;77.16;99609.29;1709681;83;21467;-69
2021/11/01 19:00:28;;;;;;;81.80;59.58;;;;;;;7.89;77.02;99610.64;1715215;83;21487;-72
2021/11/01 19:02:57;;;;;;;52.43;37.25;;;;;;;7.85;77.09;99605.45;1709234;83;21502;-71
2021/11/01 19:05:30;;;;;;;50.05;33.02;;;;;;;7.81;77.14;99605.68;1708266;83;20988;-70
2021/11/01 19:08:34;;;;;;;47.73;32.83;;;;;;;7.76;77.05;99597.52;1701179;83;21004;-72
2021/11/01 19:13:41;;;;;;;75.20;49.67;;;;;;;7.73;77.03;99597.47;1714035;83;21558;-70
2021/11/01 20:05:33;;;;;;;66.00;48.70;;;;;;;7.58;77.67;99570.79;1690845;83;21039;-72
2021/11/01 20:13:41;;;;;;;49.98;35.55;;;;;;;7.42;77.82;99566.56;1696669;81;21435;-73
2021/11/01 21:25:23;;;;;;;44.63;30.27;;;;;;;7.01;78.75;99512.50;1728357;83;21074;-72
2021/11/01 21:27:50;;;;;;;44.88;30.97;;;;;;;7.08;78.63;99514.22;1700294;84;21083;-72
2021/11/01 21:30:17;;;;;;;41.23;29.00;;;;;;;7.14;78.50;99522.66;1709811;83;21051;-72
2021/11/01 21:32:44;;;;;;;46.05;29.30;;;;;;;7.12;78.42;99511.28;1721887;83;21055;-72
2021/11/01 21:35:13;;;;;;;49.40;31.85;;;;;;;7.07;78.48;99509.86;1700241;84;21075;-72
2021/11/01 21:37:43;;;;;;;47.05;31.95;;;;;;;7.01;78.49;99504.95;1707743;82;21494;-72
2021/11/01 21:40:12;;;;;;;44.93;32.28;;;;;;;7.00;78.38;99505.48;1724898;83;21526;-72
2021/11/01 21:42:39;;;;;;;43.50;31.12;;;;;;;7.01;78.32;99501.67;1713496;82;21072;-72
2021/11/01 21:45:06;;;;;;;;;;;;;;;7.06;78.34;99500.92;1733235;82;21050;-72
2021/11/01 21:47:35;;;;;;;45.03;31.05;;;;;;;7.07;78.36;99497.16;1734841;82;20103;-72
2021/11/01 21:50:01;;;;;;;47.27;33.00;;;;;;;6.99;78.61;99492.19;1737271;82;21039;-72
2021/11/01 21:52:27;;;;;;;48.17;33.08;;;;;;;6.98;78.69;99492.72;1732755;81;21027;-72
2021/11/01 21:54:56;;;;;;;47.90;32.65;;;;;;;7.04;78.55;99492.78;1704672;83;21032;-72
2021/11/01 21:57:31;;;;;;;45.60;31.82;;;;;;;7.06;78.33;99494.16;1690217;83;21059;-72
2021/11/01 22:16:51;;;;;;;48.87;34.92;;;;;;;7.12;77.92;99487.71;1716952;83;21079;-72
2021/11/01 22:24:58;;;;;;;49.58;35.05;;;;;;;6.91;78.11;99477.22;1700334;82;21096;-72
2021/11/01 22:40:44;;;;;;;57.78;40.58;;;;;;;6.76;78.05;99464.89;1695448;83;21055;-71
2021/11/01 22:46:34;;;;;;;50.78;37.00;;;;;;;6.81;77.91;99457.34;1717956;83;21074;-71
2021/11/01 22:48:55;;;;;;;58.83;42.03;;;;;;;6.79;77.89;99449.50;1710848;83;20990;-71
2021/11/01 22:56:44;;;;;;;55.28;40.92;;;;;;;6.74;77.94;99455.38;1725261;83;21562;-71
2021/11/01 22:59:03;;;;;;;56.68;42.03;;;;;;;6.75;77.94;99459.72;1728492;81;21031;-71
2021/11/01 23:01:37;;;;;;;57.23;40.60;;;;;;;6.69;78.03;99452.63;1738152;81;21109;-72
2021/11/01 23:33:48;;;;;;;52.67;39.55;;;;;;;6.46;77.95;99430.18;1723271;83;21070;-71
2021/11/01 23:36:14;;;;;;;60.60;42.50;;;;;;;6.47;77.91;99426.42;1725760;83;21074;-71
2021/11/01 23:38:40;;;;;;;;;;;;;;;6.48;78.01;99425.33;1720324;82;20988;-71
2021/11/01 23:41:07;;;;;;;54.45;39.03;;;;;;;6.48;78.15;99419.13;1695365;85;20113;-71
2021/11/01 23:43:34;;;;;;;54.98;40.45;;;;;;;6.42;78.33;99412.00;1714040;83;21015;-71
2021/11/01 23:46:00;;;;;;;56.28;42.43;;;;;;;6.43;78.24;99412.30;1725529;83;21545;-71
2021/11/01 23:48:27;;;;;;;53.20;38.50;;;;;;;6.53;78.06;99421.05;1725536;83;21467;-71
2021/11/01 23:50:54;;;;;;;53.55;39.73;;;;;;;6.59;77.90;99411.95;1726777;82;21047;-71
2021/11/01 23:53:40;;;;;;;55.90;40.03;;;;;;;6.61;77.73;99409.26;1702133;83;21013;-71
2021/11/01 23:56:06;;;;;;;55.30;40.95;;;;;;;6.60;77.83;99406.80;1703902;83;21134;-71
2021/11/01 23:58:34;;;;;;;58.40;41.95;;;;;;;6.56;77.79;99399.72;1724907;82;20993;-71
